createdAt,value
2022-12-23T00:01:54.949Z,-11.79
2022-12-23T00:04:24.058Z,-11.82
2022-12-23T00:06:53.089Z,-11.86
2022-12-23T00:09:22.125Z,-11.95
2022-12-23T00:12:09.572Z,-12.01
2022-12-23T00:14:56.899Z,-12.05
2022-12-23T00:17:25.791Z,-12.07
2022-12-23T00:19:54.639Z,-12.06
2022-12-23T00:22:46.350Z,-12.09
2022-12-23T00:25:15.504Z,-12.10
2022-12-23T00:28:01.983Z,-12.10
2022-12-23T00:30:30.640Z,-12.16
2022-12-23T00:32:59.371Z,-12.18
2022-12-23T00:35:32.129Z,-12.21
2022-12-23T00:38:00.966Z,-12.25
2022-12-23T00:40:48.244Z,-12.25
2022-12-23T00:43:18.996Z,-12.27
2022-12-23T00:45:48.057Z,-12.28
2022-12-23T00:48:35.568Z,-12.32
2022-12-23T00:51:04.481Z,-12.36
2022-12-23T00:53:33.336Z,-12.44
2022-12-23T00:56:02.113Z,-12.44
2022-12-23T00:58:32.487Z,-12.49
2022-12-23T01:01:20.635Z,-12.52
2022-12-23T01:04:08.400Z,-12.54
2022-12-23T01:06:37.230Z,-12.58
2022-12-23T01:09:06.113Z,-12.63
2022-12-23T01:11:34.936Z,-12.66
2022-12-23T01:14:04.023Z,-12.67
2022-12-23T01:16:33.067Z,-12.66
2022-12-23T01:19:01.987Z,-12.66
2022-12-23T01:21:30.792Z,-12.65
2022-12-23T01:24:00.124Z,-12.67
2022-12-23T01:26:28.992Z,-12.72
2022-12-23T01:28:58.855Z,-12.78
2022-12-23T01:31:28.575Z,-12.84
2022-12-23T01:33:57.741Z,-12.89
2022-12-23T01:36:26.625Z,-12.89
2022-12-23T01:38:57.636Z,-12.88
2022-12-23T01:41:47.688Z,-12.88
2022-12-23T01:44:54.033Z,-12.89
2022-12-23T01:47:39.774Z,-12.93
2022-12-23T01:50:20.500Z,-12.98
2022-12-23T01:53:12.522Z,-13.01
2022-12-23T01:55:49.121Z,-13.07
2022-12-23T01:58:20.351Z,-13.08
2022-12-23T02:01:08.928Z,-13.11
2022-12-23T02:03:44.609Z,-13.13
2022-12-23T02:06:40.786Z,-13.16
2022-12-23T02:09:18.635Z,-13.16
2022-12-23T02:12:24.857Z,-13.18
2022-12-23T02:15:51.844Z,-13.19
2022-12-23T02:18:35.760Z,-13.20
2022-12-23T02:21:07.647Z,-13.20
2022-12-23T02:23:57.834Z,-13.19
2022-12-23T02:26:54.879Z,-13.17
2022-12-23T02:29:58.058Z,-13.07
2022-12-23T02:32:33.004Z,-12.25
2022-12-23T02:35:28.273Z,-11.16
2022-12-23T02:38:20.361Z,-10.54
2022-12-23T02:41:17.872Z,-10.07
2022-12-23T02:43:55.281Z,-9.63
2022-12-23T02:46:31.573Z,-9.08
2022-12-23T02:49:13.669Z,-8.65
2022-12-23T02:51:47.992Z,-8.11
2022-12-23T02:54:22.388Z,-7.71
2022-12-23T02:56:55.002Z,-8.42
2022-12-23T02:59:27.903Z,-9.44
2022-12-23T03:02:00.023Z,-10.26
2022-12-23T03:04:29.224Z,-10.74
2022-12-23T03:07:02.982Z,-11.04
2022-12-23T03:09:49.164Z,-11.30
2022-12-23T03:12:37.528Z,-11.45
2022-12-23T03:15:41.046Z,-11.57
2022-12-23T03:18:33.743Z,-11.64
2022-12-23T03:21:09.150Z,-11.76
2022-12-23T03:23:55.796Z,-11.80
2022-12-23T03:26:39.853Z,-11.88
2022-12-23T03:29:33.923Z,-11.93
2022-12-23T03:32:04.896Z,-11.96
2022-12-23T03:34:40.089Z,-12.02
2022-12-23T03:37:12.705Z,-12.02
2022-12-23T03:39:48.869Z,-12.01
2022-12-23T03:42:27.139Z,-12.05
2022-12-23T03:45:36.433Z,-12.04
2022-12-23T03:47:52.629Z,-12.09
2022-12-23T03:50:25.618Z,-12.11
2022-12-23T03:53:12.587Z,-12.07
2022-12-23T03:56:01.557Z,-12.04
2022-12-23T03:58:33.649Z,-12.02
2022-12-23T04:01:12.177Z,-12.02
2022-12-23T04:03:56.066Z,-12.02
2022-12-23T04:06:28.628Z,-12.01
2022-12-23T04:08:58.556Z,-12.01
2022-12-23T04:11:27.521Z,-12.00
2022-12-23T04:13:56.747Z,-12.00
2022-12-23T04:16:25.905Z,-11.96
2022-12-23T04:18:56.733Z,-11.99
2022-12-23T04:21:25.612Z,-12.04
2022-12-23T04:23:54.379Z,-12.00
2022-12-23T04:26:23.201Z,-11.96
2022-12-23T04:28:52.011Z,-11.93
2022-12-23T04:31:20.819Z,-11.92
2022-12-23T04:33:49.689Z,-11.90
2022-12-23T04:36:18.620Z,-11.89
2022-12-23T04:38:47.465Z,-11.84
2022-12-23T04:41:16.342Z,-11.78
2022-12-23T04:43:49.288Z,-11.69
2022-12-23T04:46:21.592Z,-11.65
2022-12-23T04:48:50.553Z,-11.60
2022-12-23T04:51:19.430Z,-11.56
2022-12-23T04:53:48.212Z,-11.51
2022-12-23T04:56:17.000Z,-11.44
2022-12-23T04:58:45.971Z,-11.36
2022-12-23T05:01:15.534Z,-11.26
2022-12-23T05:03:44.608Z,-11.29
2022-12-23T05:06:13.469Z,-11.18
2022-12-23T05:08:42.219Z,-11.18
2022-12-23T05:11:11.001Z,-11.19
2022-12-23T05:13:39.743Z,-11.23
2022-12-23T05:16:08.684Z,-11.26
2022-12-23T05:18:37.490Z,-11.29
2022-12-23T05:21:06.434Z,-11.33
2022-12-23T05:23:35.398Z,-11.35
2022-12-23T05:26:04.758Z,-11.37
2022-12-23T05:28:33.724Z,-11.41
2022-12-23T05:31:09.500Z,-11.42
2022-12-23T05:33:38.804Z,-11.40
2022-12-23T05:36:08.128Z,-11.42
2022-12-23T05:38:36.923Z,-11.39
2022-12-23T05:41:06.283Z,-11.38
2022-12-23T05:43:35.156Z,-11.33
2022-12-23T05:46:04.176Z,-11.34
2022-12-23T05:48:33.040Z,-11.33
2022-12-23T05:51:01.984Z,-11.32
2022-12-23T05:53:30.936Z,-11.30
2022-12-23T05:55:59.780Z,-11.25
2022-12-23T05:58:29.274Z,-11.22
2022-12-23T06:00:59.010Z,-11.28
2022-12-23T06:03:28.244Z,-11.30
2022-12-23T06:05:57.590Z,-11.33
2022-12-23T06:08:26.481Z,-11.27
2022-12-23T06:10:55.377Z,-11.27
2022-12-23T06:13:24.286Z,-11.30
2022-12-23T06:15:53.069Z,-11.31
2022-12-23T06:18:21.851Z,-11.27
2022-12-23T06:20:50.734Z,-11.27
2022-12-23T06:23:19.602Z,-11.28
2022-12-23T06:25:48.515Z,-11.28
2022-12-23T06:28:17.375Z,-11.28
2022-12-23T06:30:46.213Z,-11.26
2022-12-23T06:33:15.099Z,-11.27
2022-12-23T06:35:44.231Z,-11.25
2022-12-23T06:38:13.115Z,-11.23
2022-12-23T06:40:41.992Z,-11.18
2022-12-23T06:43:12.001Z,-11.16
2022-12-23T06:45:41.616Z,-11.13
2022-12-23T06:48:10.417Z,-11.11
2022-12-23T06:50:39.244Z,-11.08
2022-12-23T06:53:08.470Z,-11.03
2022-12-23T06:55:37.355Z,-11.01
2022-12-23T06:58:06.750Z,-11.03
2022-12-23T07:00:36.895Z,-11.03
2022-12-23T07:03:06.196Z,-11.06
2022-12-23T07:05:37.631Z,-11.12
2022-12-23T07:08:07.099Z,-11.16
2022-12-23T07:10:35.876Z,-11.22
2022-12-23T07:13:04.809Z,-11.30
2022-12-23T07:15:33.659Z,-11.42
2022-12-23T07:18:02.477Z,-11.51
2022-12-23T07:20:31.281Z,-11.62
2022-12-23T07:23:00.092Z,-11.63
2022-12-23T07:25:29.045Z,-11.65
2022-12-23T07:27:57.870Z,-11.69
2022-12-23T07:30:26.825Z,-11.76
2022-12-23T07:32:57.021Z,-11.82
2022-12-23T07:35:26.076Z,-11.89
2022-12-23T07:37:56.607Z,-11.92
2022-12-23T07:40:26.449Z,-11.93
2022-12-23T07:42:57.570Z,-11.93
2022-12-23T07:45:28.420Z,-11.94
2022-12-23T07:47:59.754Z,-11.96
2022-12-23T07:50:29.174Z,-12.03
2022-12-23T07:52:58.228Z,-12.07
2022-12-23T07:55:27.305Z,-12.16
2022-12-23T07:57:56.103Z,-12.26
2022-12-23T08:00:25.579Z,-12.39
2022-12-23T08:02:54.740Z,-12.50
2022-12-23T08:05:23.766Z,-12.62
2022-12-23T08:07:53.116Z,-12.69
2022-12-23T08:10:21.951Z,-12.73
2022-12-23T08:12:50.767Z,-12.82
2022-12-23T08:15:19.593Z,-12.86
2022-12-23T08:17:48.407Z,-12.91
2022-12-23T08:20:17.284Z,-12.94
2022-12-23T08:22:46.068Z,-12.97
2022-12-23T08:25:14.957Z,-13.03
2022-12-23T08:27:43.737Z,-13.09
2022-12-23T08:30:12.953Z,-13.17
2022-12-23T08:32:41.769Z,-13.23
2022-12-23T08:35:10.697Z,-13.27
2022-12-23T08:37:39.525Z,-13.34
2022-12-23T08:40:08.993Z,-13.38
2022-12-23T08:42:37.809Z,-13.42
2022-12-23T08:45:06.935Z,-13.48
2022-12-23T08:47:35.707Z,-13.55
2022-12-23T08:50:05.161Z,-13.57
2022-12-23T08:52:33.990Z,-13.58
2022-12-23T08:55:02.834Z,-13.58
2022-12-23T08:57:31.895Z,-13.67
2022-12-23T09:00:00.702Z,-13.67
2022-12-23T09:02:31.202Z,-13.71
2022-12-23T09:05:00.327Z,-13.71
2022-12-23T09:07:29.530Z,-13.73
2022-12-23T09:09:58.587Z,-13.75
2022-12-23T09:12:27.435Z,-13.78
2022-12-23T09:14:56.246Z,-13.79
2022-12-23T09:17:25.358Z,-13.82
2022-12-23T09:19:54.176Z,-13.84
2022-12-23T09:22:23.068Z,-13.86
2022-12-23T09:24:51.900Z,-13.87
2022-12-23T09:27:20.786Z,-13.83
2022-12-23T09:29:49.605Z,-13.85
2022-12-23T09:32:18.501Z,-13.86
2022-12-23T09:34:47.392Z,-13.89
2022-12-23T09:37:17.408Z,-13.90
2022-12-23T09:39:46.217Z,-13.92
2022-12-23T09:42:33.432Z,-13.93
2022-12-23T09:45:14.485Z,-13.94
2022-12-23T09:47:44.987Z,-14.01
2022-12-23T09:50:26.773Z,-13.99
2022-12-23T09:53:00.474Z,-14.01
2022-12-23T09:55:46.886Z,-14.01
2022-12-23T09:58:25.159Z,-14.08
2022-12-23T10:01:15.331Z,-14.14
2022-12-23T10:04:25.550Z,-14.14
2022-12-23T10:07:23.667Z,-14.12
2022-12-23T10:09:55.645Z,-14.11
2022-12-23T10:12:40.075Z,-14.08
2022-12-23T10:15:30.987Z,-14.08
2022-12-23T10:18:06.188Z,-14.05
2022-12-23T10:20:42.907Z,-14.07
2022-12-23T10:23:19.971Z,-14.05
2022-12-23T10:25:52.282Z,-14.01
2022-12-23T10:28:21.220Z,-14.02
2022-12-23T10:31:42.133Z,-14.08
2022-12-23T10:34:12.872Z,-14.12
2022-12-23T10:36:51.833Z,-14.15
2022-12-23T10:39:44.152Z,-14.17
2022-12-23T10:42:34.881Z,-14.22
2022-12-23T10:45:27.816Z,-14.26
2022-12-23T10:48:15.676Z,-14.32
2022-12-23T10:50:47.501Z,-14.34
2022-12-23T10:53:39.074Z,-14.38
2022-12-23T10:56:09.214Z,-14.38
2022-12-23T10:58:42.876Z,-14.36
2022-12-23T11:01:26.071Z,-14.31
2022-12-23T11:04:09.807Z,-14.28
2022-12-23T11:06:46.944Z,-14.28
2022-12-23T11:09:26.188Z,-14.20
2022-12-23T11:12:09.888Z,-14.19
2022-12-23T11:14:45.236Z,-14.17
2022-12-23T11:17:30.300Z,-14.16
2022-12-23T11:20:17.631Z,-14.14
2022-12-23T11:22:56.846Z,-14.12
2022-12-23T11:25:29.164Z,-14.10
2022-12-23T11:28:06.200Z,-14.04
2022-12-23T11:31:08.834Z,-14.02
2022-12-23T11:33:42.377Z,-14.02
2022-12-23T11:36:14.322Z,-14.00
2022-12-23T11:39:15.206Z,-13.97
2022-12-23T11:41:53.160Z,-13.96
2022-12-23T11:44:39.642Z,-13.96
2022-12-23T11:47:37.103Z,-13.96
2022-12-23T11:50:32.104Z,-13.97
2022-12-23T11:53:13.264Z,-13.97
2022-12-23T11:56:20.857Z,-13.97
2022-12-23T11:58:55.078Z,-14.02
2022-12-23T12:01:26.438Z,-13.99
2022-12-23T12:04:01.156Z,-13.99
2022-12-23T12:06:31.885Z,-13.95
2022-12-23T12:09:04.645Z,-13.91
2022-12-23T12:11:40.824Z,-13.89
2022-12-23T12:14:29.668Z,-13.92
2022-12-23T12:17:33.364Z,-13.91
2022-12-23T12:20:39.575Z,-13.92
2022-12-23T12:23:48.758Z,-14.00
2022-12-23T12:26:36.245Z,-14.06
2022-12-23T12:29:26.389Z,-14.15
2022-12-23T12:32:01.088Z,-14.23
2022-12-23T12:34:38.627Z,-14.26
2022-12-23T12:37:23.221Z,-14.25
2022-12-23T12:40:01.724Z,-14.28
2022-12-23T12:42:40.161Z,-14.32
2022-12-23T12:45:23.299Z,-14.38
2022-12-23T12:48:13.043Z,-14.46
2022-12-23T12:51:10.080Z,-14.58
2022-12-23T12:53:59.561Z,-14.67
2022-12-23T12:56:56.723Z,-14.70
2022-12-23T12:59:33.699Z,-14.74
2022-12-23T13:02:37.641Z,-14.78
2022-12-23T13:05:48.443Z,-14.84
2022-12-23T13:08:48.334Z,-14.88
2022-12-23T13:11:37.363Z,-14.87
2022-12-23T13:14:14.925Z,-14.90
2022-12-23T13:16:55.039Z,-14.96
2022-12-23T13:19:35.703Z,-15.01
2022-12-23T13:22:19.001Z,-15.01
2022-12-23T13:24:53.944Z,-15.09
2022-12-23T13:27:35.228Z,-15.17
2022-12-23T13:30:13.849Z,-15.16
2022-12-23T13:33:13.463Z,-15.17
2022-12-23T13:36:04.743Z,-15.24
2022-12-23T13:38:57.908Z,-15.39
2022-12-23T13:41:40.124Z,-15.49
2022-12-23T13:44:16.749Z,-15.54
2022-12-23T13:47:19.611Z,-15.57
2022-12-23T13:50:11.159Z,-15.56
2022-12-23T13:53:07.108Z,-15.58
2022-12-23T13:55:54.080Z,-15.58
2022-12-23T13:58:26.737Z,-15.63
2022-12-23T14:01:00.633Z,-15.68
2022-12-23T14:03:40.418Z,-15.66
2022-12-23T14:06:24.635Z,-15.62
2022-12-23T14:08:56.160Z,-15.60
2022-12-23T14:11:33.964Z,-15.62
2022-12-23T14:14:05.459Z,-15.62
2022-12-23T14:16:57.349Z,-15.64
2022-12-23T14:19:58.687Z,-15.68
2022-12-23T14:22:57.693Z,-15.69
2022-12-23T14:25:51.325Z,-15.72
2022-12-23T14:28:32.364Z,-15.74
2022-12-23T14:31:04.207Z,-15.73
2022-12-23T14:33:38.175Z,-15.70
2022-12-23T14:36:27.278Z,-15.65
2022-12-23T14:39:14.148Z,-15.64
2022-12-23T14:41:53.593Z,-15.69
2022-12-23T14:44:42.272Z,-15.70
2022-12-23T14:47:33.745Z,-15.73
2022-12-23T14:50:39.495Z,-15.72
2022-12-23T14:53:22.981Z,-15.73
2022-12-23T14:56:11.458Z,-15.76
2022-12-23T14:59:19.546Z,-15.78
2022-12-23T15:02:30.759Z,-15.78
2022-12-23T15:05:01.020Z,-15.79
2022-12-23T15:07:38.559Z,-15.90
2022-12-23T15:10:14.286Z,-15.87
2022-12-23T15:12:53.316Z,-15.90
2022-12-23T15:15:27.703Z,-15.91
2022-12-23T15:18:05.510Z,-15.90
2022-12-23T15:20:35.818Z,-15.90
2022-12-23T15:23:11.234Z,-15.85
2022-12-23T15:25:44.170Z,-15.90
2022-12-23T15:28:31.507Z,-15.82
2022-12-23T15:31:01.349Z,-15.80
2022-12-23T15:34:02.461Z,-15.79
2022-12-23T15:36:36.187Z,-15.73
2022-12-23T15:39:11.589Z,-15.70
2022-12-23T15:41:47.433Z,-15.65
2022-12-23T15:44:24.815Z,-15.62
2022-12-23T15:46:53.902Z,-15.64
2022-12-23T15:49:22.682Z,-15.69
2022-12-23T15:52:18.210Z,-15.70
2022-12-23T15:54:54.475Z,-15.68
2022-12-23T15:57:27.720Z,-15.62
2022-12-23T15:59:59.074Z,-15.59
2022-12-23T16:05:34.952Z,-15.57
2022-12-23T16:08:23.209Z,-15.54
2022-12-23T16:11:12.077Z,-15.55
2022-12-23T16:13:46.751Z,-15.58
2022-12-23T16:16:21.680Z,-15.54
2022-12-23T16:18:50.395Z,-15.59
2022-12-23T16:21:19.282Z,-15.60
2022-12-23T16:23:52.439Z,-15.60
2022-12-23T16:26:22.220Z,-15.55
2022-12-23T16:28:57.306Z,-15.56
2022-12-23T16:31:26.648Z,-15.56
2022-12-23T16:34:00.227Z,-15.58
2022-12-23T16:36:29.051Z,-15.59
2022-12-23T16:39:00.697Z,-15.62
2022-12-23T16:41:29.503Z,-15.66
2022-12-23T16:43:59.054Z,-15.69
2022-12-23T16:46:28.992Z,-15.78
2022-12-23T16:49:00.393Z,-15.85
2022-12-23T16:51:34.426Z,-15.91
2022-12-23T16:54:03.319Z,-15.91
2022-12-23T16:56:36.681Z,-15.85
2022-12-23T16:59:05.880Z,-15.73
2022-12-23T17:01:41.860Z,-15.66
2022-12-23T17:04:11.052Z,-15.65
2022-12-23T17:06:41.290Z,-15.65
2022-12-23T17:09:11.530Z,-15.66
2022-12-23T17:11:40.541Z,-15.64
2022-12-23T17:14:16.210Z,-15.65
2022-12-23T17:16:46.265Z,-15.69
2022-12-23T17:19:15.350Z,-15.77
2022-12-23T17:21:46.928Z,-15.74
2022-12-23T17:24:24.419Z,-15.70
2022-12-23T17:26:54.408Z,-15.67
2022-12-23T17:29:23.439Z,-15.70
2022-12-23T17:31:52.824Z,-15.69
2022-12-23T17:34:24.214Z,-15.74
2022-12-23T17:36:53.694Z,-15.77
2022-12-23T17:39:23.282Z,-15.77
2022-12-23T17:41:52.540Z,-15.81
2022-12-23T17:44:21.536Z,-15.87
2022-12-23T17:46:50.355Z,-15.91
2022-12-23T17:49:19.167Z,-15.93
2022-12-23T17:51:48.081Z,-15.94
2022-12-23T17:54:24.386Z,-15.95
2022-12-23T17:56:53.811Z,-15.99
2022-12-23T17:59:22.804Z,-16.04
2022-12-23T18:01:52.796Z,-16.05
2022-12-23T18:04:21.959Z,-16.07
2022-12-23T18:06:50.830Z,-16.12
2022-12-23T18:09:21.906Z,-16.14
2022-12-23T18:11:50.870Z,-16.20
2022-12-23T18:14:32.464Z,-16.27
2022-12-23T18:17:01.601Z,-16.30
2022-12-23T18:19:31.996Z,-16.36
2022-12-23T18:22:00.997Z,-16.34
2022-12-23T18:24:29.962Z,-16.33
2022-12-23T18:26:58.817Z,-16.33
2022-12-23T18:29:27.881Z,-16.35
2022-12-23T18:31:56.767Z,-16.40
2022-12-23T18:34:25.550Z,-16.43
2022-12-23T18:36:54.697Z,-16.45
2022-12-23T18:39:23.659Z,-16.51
2022-12-23T18:41:52.460Z,-16.54
2022-12-23T18:44:22.325Z,-16.53
2022-12-23T18:46:51.559Z,-16.54
2022-12-23T18:49:20.563Z,-16.58
2022-12-23T18:51:49.546Z,-16.60
2022-12-23T18:54:18.676Z,-16.64
2022-12-23T18:56:48.373Z,-16.70
2022-12-23T18:59:24.333Z,-16.77
2022-12-23T19:02:00.162Z,-16.76
2022-12-23T19:04:29.483Z,-16.81
2022-12-23T19:06:58.882Z,-16.81
2022-12-23T19:09:27.808Z,-16.87
2022-12-23T19:11:56.931Z,-16.90
2022-12-23T19:14:25.814Z,-16.92
2022-12-23T19:16:54.815Z,-16.95
2022-12-23T19:19:23.959Z,-16.95
2022-12-23T19:21:52.882Z,-16.97
2022-12-23T19:24:21.762Z,-17.05
2022-12-23T19:26:50.691Z,-17.13
2022-12-23T19:29:19.619Z,-17.11
2022-12-23T19:31:48.509Z,-17.14
2022-12-23T19:34:17.486Z,-17.18
2022-12-23T19:36:46.531Z,-17.21
2022-12-23T19:39:17.526Z,-17.25
2022-12-23T19:41:46.489Z,-17.28
2022-12-23T19:44:15.538Z,-17.35
2022-12-23T19:46:44.518Z,-17.36
2022-12-23T19:49:19.630Z,-17.42
2022-12-23T19:51:49.826Z,-17.44
2022-12-23T19:54:19.665Z,-17.43
2022-12-23T19:56:51.882Z,-17.45
2022-12-23T19:59:21.989Z,-17.45
2022-12-23T20:01:52.995Z,-17.42
2022-12-23T20:04:25.547Z,-17.44
2022-12-23T20:06:54.456Z,-17.43
2022-12-23T20:09:23.334Z,-17.47
2022-12-23T20:11:52.199Z,-17.47
2022-12-23T20:14:22.289Z,-17.51
2022-12-23T20:16:51.654Z,-17.50
2022-12-23T20:19:20.565Z,-17.50
2022-12-23T20:21:50.580Z,-17.54
2022-12-23T20:24:19.416Z,-17.55
2022-12-23T20:26:48.706Z,-17.58
2022-12-23T20:29:17.482Z,-17.63
2022-12-23T20:31:46.433Z,-17.63
2022-12-23T20:34:17.756Z,-17.69
2022-12-23T20:36:47.282Z,-17.62
2022-12-23T20:39:16.177Z,-17.62
2022-12-23T20:41:45.007Z,-17.64
2022-12-23T20:47:02.763Z,-17.66
2022-12-23T20:49:31.752Z,-17.71
2022-12-23T20:52:00.733Z,-17.75
2022-12-23T20:54:33.337Z,-17.78
2022-12-23T20:57:03.427Z,-17.81
2022-12-23T20:59:32.309Z,-17.83
2022-12-23T21:02:02.760Z,-17.87
2022-12-23T21:04:32.242Z,-17.84
2022-12-23T21:07:01.055Z,-17.84
2022-12-23T21:09:30.002Z,-17.88
2022-12-23T21:11:58.782Z,-17.95
2022-12-23T21:14:27.838Z,-17.97
2022-12-23T21:16:56.674Z,-18.00
2022-12-23T21:19:26.741Z,-18.05
2022-12-23T21:21:55.652Z,-18.05
2022-12-23T21:24:24.492Z,-18.05
2022-12-23T21:26:57.241Z,-18.09
2022-12-23T21:29:27.142Z,-18.14
2022-12-23T21:31:56.316Z,-18.18
2022-12-23T21:34:25.349Z,-18.22
2022-12-23T21:36:54.229Z,-18.27
2022-12-23T21:39:23.091Z,-18.38
2022-12-23T21:41:53.311Z,-18.38
2022-12-23T21:44:22.123Z,-18.39
2022-12-23T21:46:52.092Z,-18.42
2022-12-23T21:49:21.961Z,-18.43
2022-12-23T21:51:51.005Z,-18.44
2022-12-23T21:54:19.883Z,-18.46
2022-12-23T21:56:48.750Z,-18.51
2022-12-23T21:59:17.684Z,-18.52
2022-12-23T22:01:47.680Z,-18.59
2022-12-23T22:04:16.742Z,-18.65
2022-12-23T22:06:46.467Z,-18.69
2022-12-23T22:09:18.915Z,-18.72
2022-12-23T22:11:48.899Z,-18.71
2022-12-23T22:14:20.274Z,-18.71
2022-12-23T22:16:49.842Z,-18.72
2022-12-23T22:19:18.722Z,-18.75
2022-12-23T22:21:47.502Z,-18.79
2022-12-23T22:24:16.321Z,-18.83
2022-12-23T22:26:45.156Z,-18.87
2022-12-23T22:29:14.030Z,-18.93
2022-12-23T22:31:48.489Z,-18.97
2022-12-23T22:34:20.005Z,-19.03
2022-12-23T22:36:50.080Z,-19.13
2022-12-23T22:39:21.889Z,-19.16
2022-12-23T22:41:52.334Z,-19.21
2022-12-23T22:44:22.140Z,-19.24
2022-12-23T22:46:51.244Z,-19.33
2022-12-23T22:49:20.279Z,-19.37
2022-12-23T22:51:49.126Z,-19.43
2022-12-23T22:54:18.160Z,-19.52
2022-12-23T22:56:47.045Z,-19.50
2022-12-23T22:59:24.381Z,-19.52
2022-12-23T23:01:54.766Z,-19.41
2022-12-23T23:04:24.314Z,-19.38
2022-12-23T23:06:53.249Z,-19.46
2022-12-23T23:09:23.292Z,-19.37
2022-12-23T23:11:52.069Z,-19.38
2022-12-23T23:14:21.304Z,-19.27
2022-12-23T23:16:50.240Z,-19.29
2022-12-23T23:19:21.099Z,-19.28
2022-12-23T23:21:50.071Z,-19.31
2022-12-23T23:24:18.932Z,-19.27
2022-12-23T23:26:47.807Z,-19.28
2022-12-23T23:29:16.870Z,-19.32
2022-12-23T23:31:45.823Z,-19.38
2022-12-23T23:34:14.810Z,-19.42
2022-12-23T23:36:43.864Z,-19.46
2022-12-23T23:39:13.844Z,-19.53
2022-12-23T23:41:43.259Z,-19.61
2022-12-23T23:44:12.920Z,-19.71
2022-12-23T23:46:41.748Z,-19.79
2022-12-23T23:49:10.876Z,-19.83
2022-12-23T23:51:40.441Z,-19.86
2022-12-23T23:54:09.834Z,-19.95
2022-12-23T23:56:39.602Z,-20.03
2022-12-23T23:59:09.932Z,-20.04
